createdAt,value
2023-12-24T00:01:56.256Z,0.13
2023-12-24T00:04:23.886Z,0.10
2023-12-24T00:06:52.676Z,0.07
2023-12-24T00:09:20.133Z,0.05
2023-12-24T00:11:47.699Z,0.03
2023-12-24T00:14:16.624Z,-0.01
2023-12-24T00:16:44.345Z,-0.02
2023-12-24T00:19:11.965Z,-0.02
2023-12-24T00:21:40.898Z,-0.03
2023-12-24T00:24:11.848Z,-0.06
2023-12-24T00:26:41.487Z,-0.07
2023-12-24T00:29:09.114Z,-0.07
2023-12-24T00:31:36.763Z,-0.07
2023-12-24T00:34:05.686Z,-0.09
2023-12-24T00:36:33.413Z,-0.11
2023-12-24T00:39:00.974Z,-0.12
2023-12-24T00:41:29.785Z,-0.12
2023-12-24T00:43:57.225Z,-0.15
2023-12-24T00:46:24.774Z,-0.17
2023-12-24T00:48:54.024Z,-0.18
2023-12-24T00:51:21.734Z,-0.18
2023-12-24T00:53:51.333Z,-0.19
2023-12-24T00:56:19.040Z,-0.20
2023-12-24T00:58:46.565Z,-0.21
2023-12-24T01:01:15.595Z,-0.22
2023-12-24T01:03:43.222Z,-0.23
2023-12-24T01:06:10.943Z,-0.25
2023-12-24T01:08:39.935Z,-0.25
2023-12-24T01:11:07.880Z,-0.25
2023-12-24T01:13:35.506Z,-0.24
2023-12-24T01:16:04.288Z,-0.25
2023-12-24T01:18:31.996Z,-0.26
2023-12-24T01:20:59.820Z,-0.27
2023-12-24T01:23:28.640Z,-0.28
2023-12-24T01:25:56.388Z,-0.28
2023-12-24T01:28:24.025Z,-0.28
2023-12-24T01:30:52.912Z,-0.28
2023-12-24T01:33:21.078Z,-0.28
2023-12-24T01:35:48.832Z,-0.27
2023-12-24T01:38:17.911Z,-0.26
2023-12-24T01:40:45.612Z,-0.26
2023-12-24T01:43:13.304Z,-0.27
2023-12-24T01:45:42.161Z,-0.27
2023-12-24T01:48:09.797Z,-0.26
2023-12-24T01:50:37.643Z,-0.26
2023-12-24T01:53:06.616Z,-0.27
2023-12-24T01:55:34.244Z,-0.25
2023-12-24T01:58:01.806Z,-0.24
2023-12-24T02:00:30.612Z,-0.25
2023-12-24T02:02:58.443Z,-0.26
2023-12-24T02:05:26.500Z,-0.25
2023-12-24T02:07:55.558Z,-0.24
2023-12-24T02:10:23.498Z,-0.25
2023-12-24T02:12:51.499Z,-0.26
2023-12-24T02:15:20.753Z,-0.26
2023-12-24T02:17:48.398Z,-0.23
2023-12-24T02:20:16.300Z,-0.23
2023-12-24T02:22:45.166Z,-0.25
2023-12-24T02:25:12.731Z,-0.24
2023-12-24T02:27:40.289Z,-0.21
2023-12-24T02:30:09.205Z,-0.21
2023-12-24T02:32:37.378Z,-0.21
2023-12-24T02:35:07.535Z,-0.21
2023-12-24T02:37:35.241Z,-0.20
2023-12-24T02:40:02.900Z,-0.20
2023-12-24T02:42:31.690Z,-0.19
2023-12-24T02:44:59.339Z,-0.18
2023-12-24T02:47:27.057Z,-0.17
2023-12-24T02:49:56.143Z,-0.18
2023-12-24T02:52:23.762Z,-0.17
2023-12-24T02:54:51.437Z,-0.16
2023-12-24T02:57:20.204Z,-0.16
2023-12-24T02:59:47.884Z,-0.17
2023-12-24T03:02:15.481Z,-0.17
2023-12-24T03:04:44.421Z,-0.16
2023-12-24T03:07:11.979Z,-0.14
2023-12-24T03:09:39.648Z,-0.10
2023-12-24T03:12:08.933Z,-0.10
2023-12-24T03:14:36.507Z,-0.10
2023-12-24T03:17:04.050Z,-0.13
2023-12-24T03:19:32.948Z,-0.13
2023-12-24T03:22:00.627Z,-0.13
2023-12-24T03:24:28.271Z,-0.13
2023-12-24T03:26:57.155Z,-0.13
2023-12-24T03:29:24.756Z,-0.13
2023-12-24T03:31:52.374Z,-0.13
2023-12-24T03:34:21.185Z,-0.10
2023-12-24T03:36:48.901Z,-0.08
2023-12-24T03:39:16.595Z,-0.07
2023-12-24T03:41:45.503Z,-0.08
2023-12-24T03:44:13.122Z,-0.08
2023-12-24T03:46:40.909Z,-0.10
2023-12-24T03:49:09.914Z,-0.08
2023-12-24T03:51:37.654Z,-0.07
2023-12-24T03:54:05.020Z,-0.06
2023-12-24T03:56:34.007Z,-0.07
2023-12-24T03:59:01.596Z,-0.08
2023-12-24T04:01:29.255Z,-0.10
2023-12-24T04:03:58.026Z,-0.11
2023-12-24T04:06:25.865Z,-0.10
2023-12-24T04:08:53.536Z,-0.09
2023-12-24T04:11:22.527Z,-0.07
2023-12-24T04:13:50.297Z,-0.07
2023-12-24T04:16:17.746Z,-0.08
2023-12-24T04:18:47.164Z,-0.09
2023-12-24T04:21:14.919Z,-0.09
2023-12-24T04:23:44.756Z,-0.08
2023-12-24T04:26:12.528Z,-0.06
2023-12-24T04:28:40.255Z,-0.02
2023-12-24T04:31:09.039Z,0.03
2023-12-24T04:33:36.662Z,0.07
2023-12-24T04:36:07.759Z,0.08
2023-12-24T04:38:35.504Z,0.09
2023-12-24T04:41:03.480Z,0.07
2023-12-24T04:43:32.680Z,0.06
2023-12-24T04:46:00.339Z,0.06
2023-12-24T04:48:28.017Z,0.06
2023-12-24T04:50:57.095Z,0.08
2023-12-24T04:53:24.737Z,0.07
2023-12-24T04:55:52.422Z,0.04
2023-12-24T04:58:21.309Z,0.02
2023-12-24T05:00:48.911Z,0.02
2023-12-24T05:03:16.322Z,0.03
2023-12-24T05:05:45.284Z,0.03
2023-12-24T05:08:13.126Z,0.03
2023-12-24T05:10:40.863Z,0.04
2023-12-24T05:13:09.731Z,0.04
2023-12-24T05:15:37.297Z,0.04
2023-12-24T05:18:05.170Z,0.04
2023-12-24T05:20:34.206Z,0.03
2023-12-24T05:23:02.013Z,0.02
2023-12-24T05:25:29.884Z,0.02
2023-12-24T05:27:58.773Z,0.02
2023-12-24T05:30:26.340Z,0.03
2023-12-24T05:32:54.349Z,0.03
2023-12-24T05:35:23.516Z,0.04
2023-12-24T05:37:51.079Z,0.04
2023-12-24T05:40:18.715Z,0.04
2023-12-24T05:42:47.600Z,0.04
2023-12-24T05:45:15.054Z,0.05
2023-12-24T05:47:43.061Z,0.07
2023-12-24T05:50:12.089Z,0.08
2023-12-24T05:52:39.782Z,0.08
2023-12-24T05:55:07.334Z,0.08
2023-12-24T05:57:36.136Z,0.09
2023-12-24T06:00:03.795Z,0.08
2023-12-24T06:02:31.486Z,0.05
2023-12-24T06:05:00.784Z,0.02
2023-12-24T06:07:28.509Z,0.01
2023-12-24T06:09:58.328Z,-0.01
2023-12-24T06:12:26.037Z,-0.02
2023-12-24T06:14:53.681Z,-0.03
2023-12-24T06:17:22.581Z,-0.05
2023-12-24T06:19:50.292Z,-0.07
2023-12-24T06:22:17.967Z,-0.08
2023-12-24T06:24:46.862Z,-0.08
2023-12-24T06:27:14.817Z,-0.08
2023-12-24T06:29:42.405Z,-0.07
2023-12-24T06:32:11.398Z,-0.06
2023-12-24T06:34:39.024Z,-0.06
2023-12-24T06:37:06.605Z,-0.06
2023-12-24T06:39:35.493Z,-0.06
2023-12-24T06:42:03.053Z,-0.08
2023-12-24T06:44:30.734Z,-0.08
2023-12-24T06:46:59.715Z,-0.07
2023-12-24T06:49:27.675Z,-0.06
2023-12-24T06:51:55.223Z,-0.05
2023-12-24T06:54:24.110Z,-0.07
2023-12-24T06:56:51.677Z,-0.08
2023-12-24T06:59:19.279Z,-0.08
2023-12-24T07:01:48.217Z,-0.07
2023-12-24T07:04:15.791Z,-0.05
2023-12-24T07:06:43.776Z,-0.03
2023-12-24T07:09:12.733Z,-0.02
2023-12-24T07:11:40.454Z,-0.02
2023-12-24T07:14:08.148Z,-0.01
2023-12-24T07:16:40.061Z,0.02
2023-12-24T07:19:08.807Z,0.04
2023-12-24T07:21:37.692Z,0.06
2023-12-24T07:24:05.272Z,0.07
2023-12-24T07:26:32.861Z,0.08
2023-12-24T07:29:02.152Z,0.09
2023-12-24T07:31:29.781Z,0.14
2023-12-24T07:33:57.303Z,0.18
2023-12-24T07:36:26.348Z,0.21
2023-12-24T07:38:53.989Z,0.22
2023-12-24T07:41:21.704Z,0.24
2023-12-24T07:43:50.536Z,0.27
2023-12-24T07:46:18.109Z,0.34
2023-12-24T07:48:45.833Z,0.38
2023-12-24T07:51:14.763Z,0.40
2023-12-24T07:53:42.255Z,0.44
2023-12-24T07:56:10.010Z,0.47
2023-12-24T07:58:38.916Z,0.53
2023-12-24T08:01:06.642Z,0.57
2023-12-24T08:03:34.194Z,0.58
2023-12-24T08:06:03.218Z,0.58
2023-12-24T08:08:30.958Z,0.59
2023-12-24T08:11:04.461Z,0.64
2023-12-24T08:13:40.089Z,0.70
2023-12-24T08:16:07.645Z,0.72
2023-12-24T08:18:35.313Z,0.75
2023-12-24T08:21:04.308Z,0.78
2023-12-24T08:23:31.889Z,0.83
2023-12-24T08:25:59.631Z,0.87
2023-12-24T08:28:28.414Z,0.87
2023-12-24T08:30:56.068Z,0.87
2023-12-24T08:33:23.716Z,0.87
2023-12-24T08:35:53.034Z,0.86
2023-12-24T08:38:20.611Z,0.89
2023-12-24T08:40:48.273Z,0.96
2023-12-24T08:43:17.347Z,1.03
2023-12-24T08:45:44.908Z,1.12
2023-12-24T08:48:12.797Z,1.25
2023-12-24T08:50:41.826Z,1.35
2023-12-24T08:53:09.660Z,1.38
2023-12-24T08:55:37.593Z,1.44
2023-12-24T08:58:06.383Z,1.47
2023-12-24T09:00:33.940Z,1.46
2023-12-24T09:03:01.501Z,1.47
2023-12-24T09:05:30.489Z,1.51
2023-12-24T09:07:58.375Z,1.53
2023-12-24T09:10:25.918Z,1.55
2023-12-24T09:12:54.953Z,1.60
2023-12-24T09:15:22.990Z,1.69
2023-12-24T09:17:50.787Z,1.77
2023-12-24T09:20:19.963Z,1.82
2023-12-24T09:22:47.505Z,1.82
2023-12-24T09:25:15.159Z,1.81
2023-12-24T09:27:44.058Z,1.86
2023-12-24T09:30:11.650Z,1.92
2023-12-24T09:32:39.539Z,1.93
2023-12-24T09:35:08.521Z,1.96
2023-12-24T09:37:36.442Z,1.99
2023-12-24T09:40:04.021Z,2.07
2023-12-24T09:42:33.095Z,2.18
2023-12-24T09:45:00.675Z,2.32
2023-12-24T09:47:28.423Z,2.36
2023-12-24T09:49:57.311Z,2.41
2023-12-24T09:52:24.973Z,2.48
2023-12-24T09:54:52.524Z,2.55
2023-12-24T09:57:21.735Z,2.60
2023-12-24T09:59:49.355Z,2.69
2023-12-24T10:02:17.168Z,2.81
2023-12-24T10:04:46.208Z,2.95
2023-12-24T10:07:13.902Z,2.98
2023-12-24T10:09:41.462Z,3.02
2023-12-24T10:12:10.532Z,3.02
2023-12-24T10:14:38.476Z,3.02
2023-12-24T10:17:06.427Z,3.02
2023-12-24T10:19:35.491Z,2.99
2023-12-24T10:22:03.162Z,2.95
2023-12-24T10:24:30.915Z,2.90
2023-12-24T10:26:59.698Z,2.87
2023-12-24T10:29:27.402Z,2.87
2023-12-24T10:31:55.114Z,2.91
2023-12-24T10:34:24.161Z,2.94
2023-12-24T10:36:51.876Z,3.05
2023-12-24T10:39:20.387Z,3.21
2023-12-24T10:41:50.613Z,3.34
2023-12-24T10:44:18.370Z,3.48
2023-12-24T10:46:48.365Z,3.61
2023-12-24T10:49:15.940Z,3.73
2023-12-24T10:51:43.512Z,3.83
2023-12-24T10:54:12.530Z,3.84
2023-12-24T10:56:40.262Z,3.78
2023-12-24T10:59:08.228Z,3.78
2023-12-24T11:01:37.120Z,3.82
2023-12-24T11:04:04.599Z,3.95
2023-12-24T11:06:32.313Z,4.06
2023-12-24T11:09:01.117Z,4.10
2023-12-24T11:11:28.847Z,4.13
2023-12-24T11:13:56.590Z,4.18
2023-12-24T11:16:25.620Z,4.22
2023-12-24T11:18:53.254Z,4.23
2023-12-24T11:21:21.310Z,4.28
2023-12-24T11:23:50.776Z,4.35
2023-12-24T11:26:18.485Z,4.44
2023-12-24T11:28:46.296Z,4.50
2023-12-24T11:31:15.067Z,4.49
2023-12-24T11:33:42.574Z,4.37
2023-12-24T11:36:10.190Z,4.35
2023-12-24T11:38:39.107Z,4.33
2023-12-24T11:41:06.694Z,4.31
2023-12-24T11:43:34.507Z,4.34
2023-12-24T11:46:03.598Z,4.37
2023-12-24T11:48:31.396Z,4.41
2023-12-24T11:50:59.161Z,4.47
2023-12-24T11:53:28.062Z,4.51
2023-12-24T11:55:55.668Z,4.52
2023-12-24T11:58:23.238Z,4.54
2023-12-24T12:00:52.035Z,4.49
2023-12-24T12:03:19.548Z,4.47
2023-12-24T12:05:47.427Z,4.48
2023-12-24T12:08:16.743Z,4.49
2023-12-24T12:10:44.397Z,4.49
2023-12-24T12:13:12.069Z,4.50
2023-12-24T12:15:42.121Z,4.46
2023-12-24T12:18:11.037Z,4.47
2023-12-24T12:20:40.105Z,4.46
2023-12-24T12:23:07.653Z,4.46
2023-12-24T12:25:35.293Z,4.48
2023-12-24T12:28:04.194Z,4.49
2023-12-24T12:30:32.071Z,4.48
2023-12-24T12:32:59.853Z,4.43
2023-12-24T12:35:28.780Z,4.41
2023-12-24T12:37:56.565Z,4.43
2023-12-24T12:40:28.607Z,4.40
2023-12-24T12:43:05.208Z,4.37
2023-12-24T12:45:32.762Z,4.33
2023-12-24T12:48:00.592Z,4.32
2023-12-24T12:50:29.944Z,4.29
2023-12-24T12:52:57.599Z,4.27
2023-12-24T12:55:25.164Z,4.26
2023-12-24T12:57:54.042Z,4.24
2023-12-24T13:00:21.692Z,4.21
2023-12-24T13:02:49.442Z,4.15
2023-12-24T13:05:18.495Z,4.10
2023-12-24T13:07:46.420Z,4.04
2023-12-24T13:10:14.072Z,4.00
2023-12-24T13:12:43.003Z,3.98
2023-12-24T13:15:10.630Z,3.97
2023-12-24T13:17:38.354Z,3.99
2023-12-24T13:20:07.408Z,4.01
2023-12-24T13:22:34.942Z,4.03
2023-12-24T13:25:02.735Z,4.03
2023-12-24T13:27:31.598Z,4.05
2023-12-24T13:29:59.569Z,4.07
2023-12-24T13:32:27.192Z,4.08
2023-12-24T13:34:56.240Z,4.09
2023-12-24T13:37:23.790Z,4.10
2023-12-24T13:39:51.444Z,4.12
2023-12-24T13:42:20.335Z,4.17
2023-12-24T13:44:47.909Z,4.19
2023-12-24T13:47:15.582Z,4.21
2023-12-24T13:49:44.443Z,4.22
2023-12-24T13:52:12.410Z,4.24
2023-12-24T13:54:39.969Z,4.24
2023-12-24T13:57:08.752Z,4.24
2023-12-24T13:59:36.359Z,4.27
2023-12-24T14:02:04.407Z,4.33
2023-12-24T14:04:33.306Z,4.37
2023-12-24T14:07:00.850Z,4.40
2023-12-24T14:09:28.803Z,4.43
2023-12-24T14:11:57.691Z,4.44
2023-12-24T14:14:25.297Z,4.47
2023-12-24T14:16:52.818Z,4.47
2023-12-24T14:19:21.781Z,4.47
2023-12-24T14:21:49.569Z,4.47
2023-12-24T14:24:17.124Z,4.47
2023-12-24T14:26:45.923Z,4.49
2023-12-24T14:29:13.488Z,4.50
2023-12-24T14:31:41.445Z,4.47
2023-12-24T14:34:10.289Z,4.45
2023-12-24T14:36:37.897Z,4.43
2023-12-24T14:39:05.454Z,4.38
2023-12-24T14:41:34.378Z,4.39
2023-12-24T14:44:01.814Z,4.39
2023-12-24T14:46:29.460Z,4.40
2023-12-24T14:48:58.278Z,4.41
2023-12-24T14:51:25.904Z,4.44
2023-12-24T14:53:53.774Z,4.46
2023-12-24T14:56:22.697Z,4.48
2023-12-24T14:58:50.330Z,4.48
2023-12-24T15:01:17.989Z,4.47
2023-12-24T15:03:46.906Z,4.49
2023-12-24T15:06:14.507Z,4.50
2023-12-24T15:08:42.413Z,4.50
2023-12-24T15:11:11.315Z,4.48
2023-12-24T15:13:38.953Z,4.47
2023-12-24T15:16:06.618Z,4.47
2023-12-24T15:18:35.715Z,4.47
2023-12-24T15:21:04.748Z,4.49
2023-12-24T15:23:34.945Z,4.51
2023-12-24T15:26:02.589Z,4.55
2023-12-24T15:28:30.262Z,4.58
2023-12-24T15:30:59.200Z,4.61
2023-12-24T15:33:27.216Z,4.64
2023-12-24T15:35:55.399Z,4.67
2023-12-24T15:38:24.408Z,4.71
2023-12-24T15:40:52.038Z,4.73
2023-12-24T15:43:19.800Z,4.74
2023-12-24T15:45:48.583Z,4.76
2023-12-24T15:48:16.332Z,4.79
2023-12-24T15:50:44.035Z,4.81
2023-12-24T15:53:13.091Z,4.81
2023-12-24T15:55:41.065Z,4.81
2023-12-24T15:58:08.631Z,4.80
2023-12-24T16:00:37.448Z,4.79
2023-12-24T16:03:05.080Z,4.77
2023-12-24T16:05:32.755Z,4.76
2023-12-24T16:08:01.730Z,4.76
2023-12-24T16:10:29.289Z,4.75
2023-12-24T16:12:56.953Z,4.73
2023-12-24T16:15:26.149Z,4.71
2023-12-24T16:17:53.914Z,4.68
2023-12-24T16:20:21.833Z,4.63
2023-12-24T16:22:50.869Z,4.59
2023-12-24T16:25:18.748Z,4.57
2023-12-24T16:27:46.300Z,4.56
2023-12-24T16:30:15.139Z,4.53
2023-12-24T16:32:42.829Z,4.51
2023-12-24T16:35:10.534Z,4.51
2023-12-24T16:37:39.833Z,4.51
2023-12-24T16:40:07.586Z,4.52
2023-12-24T16:42:35.132Z,4.55
2023-12-24T16:45:04.026Z,4.58
2023-12-24T16:47:31.876Z,4.60
2023-12-24T16:49:59.554Z,4.63
2023-12-24T16:52:28.443Z,4.66
2023-12-24T16:54:56.044Z,4.67
2023-12-24T16:57:24.065Z,4.69
2023-12-24T16:59:52.883Z,4.74
2023-12-24T17:02:20.660Z,4.79
2023-12-24T17:04:48.257Z,4.84
2023-12-24T17:07:17.167Z,4.87
2023-12-24T17:09:44.730Z,4.91
2023-12-24T17:12:12.396Z,4.97
2023-12-24T17:14:41.216Z,5.01
2023-12-24T17:17:09.177Z,5.03
2023-12-24T17:19:36.733Z,5.06
2023-12-24T17:22:05.694Z,5.06
2023-12-24T17:24:33.257Z,5.08
2023-12-24T17:27:00.924Z,5.12
2023-12-24T17:29:29.867Z,5.14
2023-12-24T17:31:57.526Z,5.15
2023-12-24T17:34:25.225Z,5.19
2023-12-24T17:36:54.140Z,5.22
2023-12-24T17:39:22.098Z,5.26
2023-12-24T17:41:49.697Z,5.31
2023-12-24T17:44:18.572Z,5.37
2023-12-24T17:46:46.431Z,5.42
2023-12-24T17:49:14.013Z,5.47
2023-12-24T17:51:42.971Z,5.50
2023-12-24T17:54:10.312Z,5.53
2023-12-24T17:56:37.982Z,5.57
2023-12-24T17:59:06.863Z,5.59
2023-12-24T18:01:34.833Z,5.59
2023-12-24T18:04:02.194Z,5.59
2023-12-24T18:06:31.060Z,5.57
2023-12-24T18:08:59.570Z,5.57
2023-12-24T18:11:29.412Z,5.57
2023-12-24T18:13:57.129Z,5.55
2023-12-24T18:16:24.694Z,5.54
2023-12-24T18:18:53.813Z,5.54
2023-12-24T18:21:21.730Z,5.54
2023-12-24T18:23:49.512Z,5.56
2023-12-24T18:26:18.532Z,5.60
2023-12-24T18:28:46.175Z,5.63
2023-12-24T18:31:13.838Z,5.67
2023-12-24T18:33:42.920Z,5.70
2023-12-24T18:36:10.786Z,5.74
2023-12-24T18:38:38.421Z,5.76
2023-12-24T18:41:07.447Z,5.79
2023-12-24T18:43:35.000Z,5.82
2023-12-24T18:46:02.968Z,5.86
2023-12-24T18:48:31.974Z,5.87
2023-12-24T18:50:59.772Z,5.88
2023-12-24T18:53:27.423Z,5.88
2023-12-24T18:55:56.489Z,5.89
2023-12-24T18:58:24.042Z,5.94
2023-12-24T19:00:51.609Z,6.01
2023-12-24T19:03:20.597Z,6.09
2023-12-24T19:05:48.284Z,6.13
2023-12-24T19:08:16.371Z,6.14
2023-12-24T19:10:45.217Z,6.15
2023-12-24T19:13:12.874Z,6.13
2023-12-24T19:15:40.432Z,6.10
2023-12-24T19:18:09.439Z,6.08
2023-12-24T19:20:37.266Z,6.08
2023-12-24T19:23:05.060Z,6.08
2023-12-24T19:25:33.863Z,6.06
2023-12-24T19:28:01.406Z,6.05
2023-12-24T19:30:29.280Z,6.02
2023-12-24T19:32:58.424Z,5.98
2023-12-24T19:35:26.173Z,5.96
2023-12-24T19:37:53.888Z,5.94
2023-12-24T19:40:22.692Z,5.97
2023-12-24T19:42:50.553Z,6.01
2023-12-24T19:45:18.419Z,6.06
2023-12-24T19:47:47.395Z,6.11
2023-12-24T19:50:15.096Z,6.14
2023-12-24T19:52:43.210Z,6.15
2023-12-24T19:55:12.133Z,6.15
2023-12-24T19:57:39.791Z,6.13
2023-12-24T20:00:07.449Z,6.13
2023-12-24T20:02:36.434Z,6.13
2023-12-24T20:05:04.204Z,6.13
2023-12-24T20:07:31.808Z,6.17
2023-12-24T20:10:01.094Z,6.21
2023-12-24T20:12:28.713Z,6.28
2023-12-24T20:14:56.528Z,6.33
2023-12-24T20:17:25.523Z,6.37
2023-12-24T20:19:53.252Z,6.41
2023-12-24T20:22:20.821Z,6.45
2023-12-24T20:24:49.701Z,6.50
2023-12-24T20:27:17.369Z,6.54
2023-12-24T20:29:44.959Z,6.59
2023-12-24T20:32:14.300Z,6.63
2023-12-24T20:34:42.105Z,6.66
2023-12-24T20:37:12.006Z,6.71
2023-12-24T20:39:39.576Z,6.73
2023-12-24T20:42:07.234Z,6.71
2023-12-24T20:44:36.042Z,6.69
2023-12-24T20:47:03.564Z,6.66
2023-12-24T20:49:31.176Z,6.66
2023-12-24T20:52:00.229Z,6.67
2023-12-24T20:54:27.799Z,6.67
2023-12-24T20:56:55.534Z,6.65
2023-12-24T20:59:24.463Z,6.61
2023-12-24T21:01:52.096Z,6.58
2023-12-24T21:04:19.656Z,6.54
2023-12-24T21:06:48.553Z,6.48
2023-12-24T21:09:17.176Z,6.44
2023-12-24T21:11:47.711Z,6.40
2023-12-24T21:14:15.474Z,6.36
2023-12-24T21:16:43.294Z,6.34
2023-12-24T21:19:12.236Z,6.33
2023-12-24T21:21:39.929Z,6.31
2023-12-24T21:24:07.410Z,6.29
2023-12-24T21:26:36.406Z,6.26
2023-12-24T21:29:04.061Z,6.26
2023-12-24T21:31:31.605Z,6.25
2023-12-24T21:34:00.484Z,6.23
2023-12-24T21:36:28.574Z,6.23
2023-12-24T21:38:56.185Z,6.21
2023-12-24T21:41:24.992Z,6.20
2023-12-24T21:43:52.509Z,6.19
2023-12-24T21:46:20.134Z,6.19
2023-12-24T21:48:49.183Z,6.21
2023-12-24T21:51:16.892Z,6.23
2023-12-24T21:53:44.394Z,6.24
2023-12-24T21:56:13.388Z,6.24
2023-12-24T21:58:41.411Z,6.26
2023-12-24T22:01:12.446Z,6.27
2023-12-24T22:03:44.246Z,6.29
2023-12-24T22:06:11.844Z,6.30
2023-12-24T22:08:39.586Z,6.31
2023-12-24T22:11:08.531Z,6.32
2023-12-24T22:13:36.205Z,6.35
2023-12-24T22:16:03.753Z,6.36
2023-12-24T22:18:33.041Z,6.37
2023-12-24T22:21:00.866Z,6.40
2023-12-24T22:23:30.768Z,6.41
2023-12-24T22:25:58.495Z,6.43
2023-12-24T22:28:26.166Z,6.44
2023-12-24T22:30:55.123Z,6.47
2023-12-24T22:33:22.901Z,6.50
2023-12-24T22:35:50.803Z,6.55
2023-12-24T22:38:19.715Z,6.62
2023-12-24T22:40:47.723Z,6.70
2023-12-24T22:43:15.389Z,6.79
2023-12-24T22:45:51.321Z,6.89
2023-12-24T22:48:21.484Z,6.99
2023-12-24T22:50:49.412Z,7.10
2023-12-24T22:53:17.214Z,7.18
2023-12-24T22:55:46.079Z,7.26
2023-12-24T22:58:13.743Z,7.33
2023-12-24T23:00:41.639Z,7.38
2023-12-24T23:03:10.617Z,7.40
2023-12-24T23:05:38.447Z,7.45
2023-12-24T23:08:06.141Z,7.50
2023-12-24T23:10:35.124Z,7.54
2023-12-24T23:13:02.717Z,7.58
2023-12-24T23:15:30.450Z,7.61
2023-12-24T23:17:59.731Z,7.63
2023-12-24T23:20:27.739Z,7.68
2023-12-24T23:22:57.838Z,7.74
2023-12-24T23:25:25.504Z,7.79
2023-12-24T23:27:53.351Z,7.85
2023-12-24T23:30:23.101Z,7.88
2023-12-24T23:32:51.004Z,7.93
2023-12-24T23:35:21.073Z,7.97
2023-12-24T23:37:48.611Z,8.02
2023-12-24T23:40:16.279Z,8.05
2023-12-24T23:42:45.171Z,8.09
2023-12-24T23:45:12.729Z,8.13
2023-12-24T23:47:40.251Z,8.16
2023-12-24T23:50:09.068Z,8.21
2023-12-24T23:52:36.635Z,8.24
2023-12-24T23:55:04.192Z,8.27
2023-12-24T23:57:33.078Z,8.28
